sensor_id;sensor_type;location;lat;lon;timestamp;P1;durP1;ratioP1;P2;durP2;ratioP2
4521;SDS011;2273;48.464;11.926;2023-11-21T00:02:05;10.73;;;4.80;;
4521;SDS011;2273;48.464;11.926;2023-11-21T00:04:31;9.47;;;4.80;;
4521;SDS011;2273;48.464;11.926;2023-11-21T00:06:56;17.07;;;5.17;;
4521;SDS011;2273;48.464;11.926;2023-11-21T00:09:22;12.70;;;4.70;;
4521;SDS011;2273;48.464;11.926;2023-11-21T00:11:48;22.33;;;5.70;;
4521;SDS011;2273;48.464;11.926;2023-11-21T00:14:13;7.40;;;4.50;;
4521;SDS011;2273;48.464;11.926;2023-11-21T00:16:40;12.70;;;4.57;;
4521;SDS011;2273;48.464;11.926;2023-11-21T00:19:06;11.63;;;4.17;;
4521;SDS011;2273;48.464;11.926;2023-11-21T00:21:31;12.00;;;4.07;;
4521;SDS011;2273;48.464;11.926;2023-11-21T00:23:57;12.27;;;4.57;;
4521;SDS011;2273;48.464;11.926;2023-11-21T00:26:22;8.13;;;3.60;;
4521;SDS011;2273;48.464;11.926;2023-11-21T00:28:58;8.80;;;3.57;;
4521;SDS011;2273;48.464;11.926;2023-11-21T00:31:24;21.00;;;3.70;;
4521;SDS011;2273;48.464;11.926;2023-11-21T00:33:49;6.80;;;3.43;;
4521;SDS011;2273;48.464;11.926;2023-11-21T00:36:15;7.70;;;3.87;;
4521;SDS011;2273;48.464;11.926;2023-11-21T00:38:40;10.93;;;4.30;;
4521;SDS011;2273;48.464;11.926;2023-11-21T00:41:06;10.10;;;3.90;;
4521;SDS011;2273;48.464;11.926;2023-11-21T00:43:31;5.90;;;3.20;;
4521;SDS011;2273;48.464;11.926;2023-11-21T00:45:59;11.37;;;4.03;;
4521;SDS011;2273;48.464;11.926;2023-11-21T00:48:25;13.57;;;4.13;;
4521;SDS011;2273;48.464;11.926;2023-11-21T00:50:50;10.63;;;3.97;;
4521;SDS011;2273;48.464;11.926;2023-11-21T00:53:16;12.93;;;3.57;;
4521;SDS011;2273;48.464;11.926;2023-11-21T00:55:42;9.20;;;3.90;;
4521;SDS011;2273;48.464;11.926;2023-11-21T00:58:07;14.43;;;4.33;;
4521;SDS011;2273;48.464;11.926;2023-11-21T01:00:33;6.60;;;3.73;;
4521;SDS011;2273;48.464;11.926;2023-11-21T01:02:59;9.10;;;4.07;;
4521;SDS011;2273;48.464;11.926;2023-11-21T01:05:24;10.10;;;4.47;;
4521;SDS011;2273;48.464;11.926;2023-11-21T01:07:50;12.47;;;4.57;;
4521;SDS011;2273;48.464;11.926;2023-11-21T01:10:16;7.57;;;4.20;;
4521;SDS011;2273;48.464;11.926;2023-11-21T01:12:42;13.00;;;4.73;;
4521;SDS011;2273;48.464;11.926;2023-11-21T01:15:08;10.20;;;4.37;;
4521;SDS011;2273;48.464;11.926;2023-11-21T01:17:34;7.63;;;3.97;;
4521;SDS011;2273;48.464;11.926;2023-11-21T01:20:00;13.80;;;3.77;;
4521;SDS011;2273;48.464;11.926;2023-11-21T01:22:26;10.67;;;4.00;;
4521;SDS011;2273;48.464;11.926;2023-11-21T01:24:53;8.60;;;3.40;;
4521;SDS011;2273;48.464;11.926;2023-11-21T01:27:18;9.80;;;4.27;;
4521;SDS011;2273;48.464;11.926;2023-11-21T01:29:44;12.37;;;4.00;;
4521;SDS011;2273;48.464;11.926;2023-11-21T01:32:09;8.90;;;3.50;;
4521;SDS011;2273;48.464;11.926;2023-11-21T01:34:35;13.07;;;3.93;;
4521;SDS011;2273;48.464;11.926;2023-11-21T01:37:00;9.93;;;3.63;;
4521;SDS011;2273;48.464;11.926;2023-11-21T01:39:30;13.90;;;4.23;;
4521;SDS011;2273;48.464;11.926;2023-11-21T01:41:56;13.03;;;6.13;;
4521;SDS011;2273;48.464;11.926;2023-11-21T01:44:26;10.97;;;4.97;;
4521;SDS011;2273;48.464;11.926;2023-11-21T01:46:51;8.10;;;3.53;;
4521;SDS011;2273;48.464;11.926;2023-11-21T01:49:17;9.13;;;3.53;;
4521;SDS011;2273;48.464;11.926;2023-11-21T01:51:44;11.30;;;4.30;;
4521;SDS011;2273;48.464;11.926;2023-11-21T01:54:12;11.20;;;5.07;;
4521;SDS011;2273;48.464;11.926;2023-11-21T01:56:37;12.77;;;5.43;;
4521;SDS011;2273;48.464;11.926;2023-11-21T01:59:04;14.60;;;7.13;;
4521;SDS011;2273;48.464;11.926;2023-11-21T02:01:32;16.13;;;7.20;;
4521;SDS011;2273;48.464;11.926;2023-11-21T02:03:58;12.07;;;5.67;;
4521;SDS011;2273;48.464;11.926;2023-11-21T02:06:23;12.00;;;4.87;;
4521;SDS011;2273;48.464;11.926;2023-11-21T02:08:51;15.37;;;4.90;;
4521;SDS011;2273;48.464;11.926;2023-11-21T02:11:16;12.40;;;5.10;;
4521;SDS011;2273;48.464;11.926;2023-11-21T02:13:45;9.33;;;4.90;;
4521;SDS011;2273;48.464;11.926;2023-11-21T02:16:12;12.13;;;4.23;;
4521;SDS011;2273;48.464;11.926;2023-11-21T02:18:39;13.87;;;4.70;;
4521;SDS011;2273;48.464;11.926;2023-11-21T02:21:05;9.60;;;4.07;;
4521;SDS011;2273;48.464;11.926;2023-11-21T02:23:30;10.80;;;4.10;;
4521;SDS011;2273;48.464;11.926;2023-11-21T02:25:56;9.33;;;3.27;;
4521;SDS011;2273;48.464;11.926;2023-11-21T02:28:23;7.60;;;2.53;;
4521;SDS011;2273;48.464;11.926;2023-11-21T02:30:52;5.73;;;2.60;;
4521;SDS011;2273;48.464;11.926;2023-11-21T02:33:21;4.93;;;2.70;;
4521;SDS011;2273;48.464;11.926;2023-11-21T02:35:47;4.97;;;3.07;;
4521;SDS011;2273;48.464;11.926;2023-11-21T02:38:13;11.97;;;3.30;;
4521;SDS011;2273;48.464;11.926;2023-11-21T02:40:39;5.67;;;3.20;;
4521;SDS011;2273;48.464;11.926;2023-11-21T02:43:04;6.37;;;2.60;;
4521;SDS011;2273;48.464;11.926;2023-11-21T02:45:30;9.43;;;3.03;;
4521;SDS011;2273;48.464;11.926;2023-11-21T02:47:56;11.67;;;3.10;;
4521;SDS011;2273;48.464;11.926;2023-11-21T02:50:22;6.33;;;2.83;;
4521;SDS011;2273;48.464;11.926;2023-11-21T02:52:48;8.67;;;3.00;;
4521;SDS011;2273;48.464;11.926;2023-11-21T02:55:13;9.40;;;3.07;;
4521;SDS011;2273;48.464;11.926;2023-11-21T02:57:38;5.83;;;2.60;;
4521;SDS011;2273;48.464;11.926;2023-11-21T03:00:05;6.30;;;2.90;;
4521;SDS011;2273;48.464;11.926;2023-11-21T03:02:33;4.57;;;3.23;;
4521;SDS011;2273;48.464;11.926;2023-11-21T03:05:02;4.40;;;2.63;;
4521;SDS011;2273;48.464;11.926;2023-11-21T03:07:27;6.50;;;2.07;;
4521;SDS011;2273;48.464;11.926;2023-11-21T03:09:53;12.90;;;2.30;;
4521;SDS011;2273;48.464;11.926;2023-11-21T03:12:18;22.23;;;4.50;;
4521;SDS011;2273;48.464;11.926;2023-11-21T03:14:44;7.10;;;2.30;;
4521;SDS011;2273;48.464;11.926;2023-11-21T03:17:10;3.50;;;1.70;;
4521;SDS011;2273;48.464;11.926;2023-11-21T03:19:35;4.57;;;2.20;;
4521;SDS011;2273;48.464;11.926;2023-11-21T03:22:01;11.47;;;2.03;;
4521;SDS011;2273;48.464;11.926;2023-11-21T03:24:26;8.20;;;2.30;;
4521;SDS011;2273;48.464;11.926;2023-11-21T03:26:52;6.07;;;2.13;;
4521;SDS011;2273;48.464;11.926;2023-11-21T03:29:17;8.30;;;3.70;;
4521;SDS011;2273;48.464;11.926;2023-11-21T03:31:43;7.37;;;1.97;;
4521;SDS011;2273;48.464;11.926;2023-11-21T03:34:15;5.80;;;1.70;;
4521;SDS011;2273;48.464;11.926;2023-11-21T03:36:49;4.60;;;2.20;;
4521;SDS011;2273;48.464;11.926;2023-11-21T03:39:14;3.93;;;1.53;;
4521;SDS011;2273;48.464;11.926;2023-11-21T03:41:39;5.90;;;2.10;;
4521;SDS011;2273;48.464;11.926;2023-11-21T03:44:05;5.90;;;1.80;;
4521;SDS011;2273;48.464;11.926;2023-11-21T03:46:30;4.30;;;2.00;;
4521;SDS011;2273;48.464;11.926;2023-11-21T03:48:56;4.63;;;1.70;;
4521;SDS011;2273;48.464;11.926;2023-11-21T03:51:21;6.10;;;1.70;;
4521;SDS011;2273;48.464;11.926;2023-11-21T03:53:46;5.93;;;1.83;;
4521;SDS011;2273;48.464;11.926;2023-11-21T03:56:13;3.93;;;1.77;;
4521;SDS011;2273;48.464;11.926;2023-11-21T03:58:39;5.67;;;2.13;;
4521;SDS011;2273;48.464;11.926;2023-11-21T04:01:04;9.13;;;1.83;;
4521;SDS011;2273;48.464;11.926;2023-11-21T04:03:30;5.50;;;1.80;;
4521;SDS011;2273;48.464;11.926;2023-11-21T04:05:55;4.90;;;1.50;;
4521;SDS011;2273;48.464;11.926;2023-11-21T04:08:20;8.43;;;2.00;;
4521;SDS011;2273;48.464;11.926;2023-11-21T04:10:46;5.63;;;1.67;;
4521;SDS011;2273;48.464;11.926;2023-11-21T04:13:11;4.20;;;1.87;;
4521;SDS011;2273;48.464;11.926;2023-11-21T04:15:37;7.40;;;2.10;;
4521;SDS011;2273;48.464;11.926;2023-11-21T04:18:02;4.73;;;2.17;;
4521;SDS011;2273;48.464;11.926;2023-11-21T04:20:28;5.20;;;2.90;;
4521;SDS011;2273;48.464;11.926;2023-11-21T04:22:53;6.03;;;3.70;;
4521;SDS011;2273;48.464;11.926;2023-11-21T04:25:19;8.77;;;5.73;;
4521;SDS011;2273;48.464;11.926;2023-11-21T04:27:44;8.87;;;5.53;;
4521;SDS011;2273;48.464;11.926;2023-11-21T04:30:11;7.23;;;5.43;;
4521;SDS011;2273;48.464;11.926;2023-11-21T04:32:37;7.20;;;4.90;;
4521;SDS011;2273;48.464;11.926;2023-11-21T04:35:02;13.60;;;5.20;;
4521;SDS011;2273;48.464;11.926;2023-11-21T04:37:29;7.27;;;4.63;;
4521;SDS011;2273;48.464;11.926;2023-11-21T04:39:54;16.23;;;3.60;;
4521;SDS011;2273;48.464;11.926;2023-11-21T04:42:20;5.03;;;3.00;;
4521;SDS011;2273;48.464;11.926;2023-11-21T04:44:45;8.77;;;3.00;;
4521;SDS011;2273;48.464;11.926;2023-11-21T04:47:10;5.17;;;2.77;;
4521;SDS011;2273;48.464;11.926;2023-11-21T04:49:36;6.73;;;2.70;;
4521;SDS011;2273;48.464;11.926;2023-11-21T04:52:01;6.43;;;3.10;;
4521;SDS011;2273;48.464;11.926;2023-11-21T04:54:28;5.90;;;2.93;;
4521;SDS011;2273;48.464;11.926;2023-11-21T04:56:55;5.10;;;2.47;;
4521;SDS011;2273;48.464;11.926;2023-11-21T04:59:21;3.43;;;1.77;;
4521;SDS011;2273;48.464;11.926;2023-11-21T05:01:49;3.50;;;2.10;;
4521;SDS011;2273;48.464;11.926;2023-11-21T05:04:15;3.90;;;2.47;;
4521;SDS011;2273;48.464;11.926;2023-11-21T05:06:40;3.77;;;2.30;;
4521;SDS011;2273;48.464;11.926;2023-11-21T05:09:06;3.30;;;2.23;;
4521;SDS011;2273;48.464;11.926;2023-11-21T05:11:36;4.80;;;2.10;;
4521;SDS011;2273;48.464;11.926;2023-11-21T05:14:02;4.13;;;2.40;;
4521;SDS011;2273;48.464;11.926;2023-11-21T05:16:29;7.70;;;2.40;;
4521;SDS011;2273;48.464;11.926;2023-11-21T05:18:54;6.03;;;2.40;;
4521;SDS011;2273;48.464;11.926;2023-11-21T05:21:25;5.13;;;2.07;;
4521;SDS011;2273;48.464;11.926;2023-11-21T05:23:51;4.30;;;2.10;;
4521;SDS011;2273;48.464;11.926;2023-11-21T05:26:16;2.63;;;1.97;;
4521;SDS011;2273;48.464;11.926;2023-11-21T05:28:42;3.87;;;2.17;;
4521;SDS011;2273;48.464;11.926;2023-11-21T05:31:07;4.83;;;2.00;;
4521;SDS011;2273;48.464;11.926;2023-11-21T05:33:33;7.77;;;2.30;;
4521;SDS011;2273;48.464;11.926;2023-11-21T05:35:58;5.30;;;2.13;;
4521;SDS011;2273;48.464;11.926;2023-11-21T05:38:23;6.50;;;2.23;;
4521;SDS011;2273;48.464;11.926;2023-11-21T05:40:49;6.33;;;2.60;;
4521;SDS011;2273;48.464;11.926;2023-11-21T05:43:15;5.27;;;2.70;;
4521;SDS011;2273;48.464;11.926;2023-11-21T05:45:40;4.00;;;2.50;;
4521;SDS011;2273;48.464;11.926;2023-11-21T05:48:06;5.27;;;2.57;;
4521;SDS011;2273;48.464;11.926;2023-11-21T05:50:31;5.83;;;2.40;;
4521;SDS011;2273;48.464;11.926;2023-11-21T05:52:57;4.10;;;2.87;;
4521;SDS011;2273;48.464;11.926;2023-11-21T05:55:25;3.80;;;3.27;;
4521;SDS011;2273;48.464;11.926;2023-11-21T05:57:51;6.83;;;4.10;;
4521;SDS011;2273;48.464;11.926;2023-11-21T06:00:16;6.07;;;5.30;;
4521;SDS011;2273;48.464;11.926;2023-11-21T06:02:44;8.00;;;4.63;;
4521;SDS011;2273;48.464;11.926;2023-11-21T06:05:10;6.53;;;4.90;;
4521;SDS011;2273;48.464;11.926;2023-11-21T06:07:36;8.03;;;5.43;;
4521;SDS011;2273;48.464;11.926;2023-11-21T06:10:03;10.00;;;5.57;;
4521;SDS011;2273;48.464;11.926;2023-11-21T06:12:31;8.20;;;5.20;;
4521;SDS011;2273;48.464;11.926;2023-11-21T06:15:00;5.70;;;4.50;;
4521;SDS011;2273;48.464;11.926;2023-11-21T06:17:31;6.93;;;3.87;;
4521;SDS011;2273;48.464;11.926;2023-11-21T06:19:56;7.50;;;3.77;;
4521;SDS011;2273;48.464;11.926;2023-11-21T06:22:22;7.83;;;3.20;;
4521;SDS011;2273;48.464;11.926;2023-11-21T06:24:47;13.03;;;3.07;;
4521;SDS011;2273;48.464;11.926;2023-11-21T06:27:13;4.53;;;2.53;;
4521;SDS011;2273;48.464;11.926;2023-11-21T06:29:38;5.27;;;2.83;;
4521;SDS011;2273;48.464;11.926;2023-11-21T06:32:04;4.50;;;2.40;;
4521;SDS011;2273;48.464;11.926;2023-11-21T06:34:30;4.97;;;2.63;;
4521;SDS011;2273;48.464;11.926;2023-11-21T06:36:56;6.60;;;3.27;;
4521;SDS011;2273;48.464;11.926;2023-11-21T06:39:21;4.67;;;2.47;;
4521;SDS011;2273;48.464;11.926;2023-11-21T06:41:48;4.23;;;2.60;;
4521;SDS011;2273;48.464;11.926;2023-11-21T06:44:14;11.03;;;3.60;;
4521;SDS011;2273;48.464;11.926;2023-11-21T06:46:40;7.63;;;3.93;;
4521;SDS011;2273;48.464;11.926;2023-11-21T06:49:07;8.30;;;4.97;;
4521;SDS011;2273;48.464;11.926;2023-11-21T06:51:33;9.77;;;4.90;;
4521;SDS011;2273;48.464;11.926;2023-11-21T06:53:58;7.50;;;5.33;;
4521;SDS011;2273;48.464;11.926;2023-11-21T06:56:24;10.43;;;5.20;;
4521;SDS011;2273;48.464;11.926;2023-11-21T06:58:49;9.53;;;5.10;;
4521;SDS011;2273;48.464;11.926;2023-11-21T07:01:18;6.50;;;4.30;;
4521;SDS011;2273;48.464;11.926;2023-11-21T07:03:44;7.20;;;3.63;;
4521;SDS011;2273;48.464;11.926;2023-11-21T07:06:10;10.40;;;4.40;;
4521;SDS011;2273;48.464;11.926;2023-11-21T07:08:36;5.67;;;4.10;;
4521;SDS011;2273;48.464;11.926;2023-11-21T07:11:02;7.27;;;4.43;;
4521;SDS011;2273;48.464;11.926;2023-11-21T07:13:28;8.90;;;3.80;;
4521;SDS011;2273;48.464;11.926;2023-11-21T07:15:54;8.80;;;3.83;;
4521;SDS011;2273;48.464;11.926;2023-11-21T07:18:19;11.23;;;4.97;;
4521;SDS011;2273;48.464;11.926;2023-11-21T07:20:45;7.73;;;3.57;;
4521;SDS011;2273;48.464;11.926;2023-11-21T07:23:10;7.13;;;3.77;;
4521;SDS011;2273;48.464;11.926;2023-11-21T07:25:36;8.00;;;3.33;;
4521;SDS011;2273;48.464;11.926;2023-11-21T07:28:01;5.77;;;3.13;;
4521;SDS011;2273;48.464;11.926;2023-11-21T07:30:26;5.07;;;2.50;;
4521;SDS011;2273;48.464;11.926;2023-11-21T07:32:52;7.30;;;2.80;;
4521;SDS011;2273;48.464;11.926;2023-11-21T07:35:18;5.07;;;2.50;;
4521;SDS011;2273;48.464;11.926;2023-11-21T07:37:43;14.63;;;3.77;;
4521;SDS011;2273;48.464;11.926;2023-11-21T07:40:09;12.47;;;4.90;;
4521;SDS011;2273;48.464;11.926;2023-11-21T07:42:36;8.80;;;3.10;;
4521;SDS011;2273;48.464;11.926;2023-11-21T07:45:04;8.20;;;3.23;;
4521;SDS011;2273;48.464;11.926;2023-11-21T07:47:32;5.60;;;2.83;;
4521;SDS011;2273;48.464;11.926;2023-11-21T07:49:59;4.07;;;2.63;;
4521;SDS011;2273;48.464;11.926;2023-11-21T07:52:28;6.37;;;3.30;;
4521;SDS011;2273;48.464;11.926;2023-11-21T07:54:53;4.60;;;3.13;;
4521;SDS011;2273;48.464;11.926;2023-11-21T07:57:19;6.70;;;2.73;;
4521;SDS011;2273;48.464;11.926;2023-11-21T07:59:44;8.33;;;2.83;;
4521;SDS011;2273;48.464;11.926;2023-11-21T08:02:09;4.57;;;2.20;;
4521;SDS011;2273;48.464;11.926;2023-11-21T08:04:35;7.00;;;2.53;;
4521;SDS011;2273;48.464;11.926;2023-11-21T08:07:01;8.13;;;2.63;;
4521;SDS011;2273;48.464;11.926;2023-11-21T08:09:27;6.20;;;2.50;;
4521;SDS011;2273;48.464;11.926;2023-11-21T08:11:52;4.87;;;2.50;;
4521;SDS011;2273;48.464;11.926;2023-11-21T08:14:18;9.17;;;3.00;;
4521;SDS011;2273;48.464;11.926;2023-11-21T08:16:44;4.30;;;2.60;;
4521;SDS011;2273;48.464;11.926;2023-11-21T08:19:09;4.67;;;2.63;;
4521;SDS011;2273;48.464;11.926;2023-11-21T08:21:36;6.03;;;2.87;;
4521;SDS011;2273;48.464;11.926;2023-11-21T08:24:04;4.53;;;2.10;;
4521;SDS011;2273;48.464;11.926;2023-11-21T08:26:31;7.20;;;2.20;;
4521;SDS011;2273;48.464;11.926;2023-11-21T08:28:56;5.40;;;2.43;;
4521;SDS011;2273;48.464;11.926;2023-11-21T08:31:25;4.30;;;2.00;;
4521;SDS011;2273;48.464;11.926;2023-11-21T08:33:51;3.80;;;2.30;;
4521;SDS011;2273;48.464;11.926;2023-11-21T08:36:16;3.60;;;2.30;;
4521;SDS011;2273;48.464;11.926;2023-11-21T08:38:42;6.53;;;2.13;;
4521;SDS011;2273;48.464;11.926;2023-11-21T08:41:07;2.80;;;2.00;;
4521;SDS011;2273;48.464;11.926;2023-11-21T08:43:36;4.10;;;2.20;;
4521;SDS011;2273;48.464;11.926;2023-11-21T08:46:05;5.97;;;2.07;;
4521;SDS011;2273;48.464;11.926;2023-11-21T08:48:31;4.93;;;2.43;;
4521;SDS011;2273;48.464;11.926;2023-11-21T08:50:56;5.90;;;2.33;;
4521;SDS011;2273;48.464;11.926;2023-11-21T08:53:22;2.80;;;2.00;;
4521;SDS011;2273;48.464;11.926;2023-11-21T08:55:47;7.73;;;4.03;;
4521;SDS011;2273;48.464;11.926;2023-11-21T08:58:13;9.33;;;4.53;;
4521;SDS011;2273;48.464;11.926;2023-11-21T09:00:39;3.13;;;2.00;;
4521;SDS011;2273;48.464;11.926;2023-11-21T09:03:05;4.60;;;2.70;;
4521;SDS011;2273;48.464;11.926;2023-11-21T09:05:33;5.10;;;2.33;;
4521;SDS011;2273;48.464;11.926;2023-11-21T09:07:59;3.43;;;2.13;;
4521;SDS011;2273;48.464;11.926;2023-11-21T09:10:24;3.73;;;1.90;;
4521;SDS011;2273;48.464;11.926;2023-11-21T09:12:50;5.27;;;2.13;;
4521;SDS011;2273;48.464;11.926;2023-11-21T09:15:17;3.57;;;2.20;;
4521;SDS011;2273;48.464;11.926;2023-11-21T09:17:42;6.10;;;2.00;;
4521;SDS011;2273;48.464;11.926;2023-11-21T09:20:09;3.70;;;2.07;;
4521;SDS011;2273;48.464;11.926;2023-11-21T09:22:35;6.70;;;3.20;;
4521;SDS011;2273;48.464;11.926;2023-11-21T09:25:01;2.90;;;1.90;;
4521;SDS011;2273;48.464;11.926;2023-11-21T09:27:30;3.50;;;2.23;;
4521;SDS011;2273;48.464;11.926;2023-11-21T09:29:58;7.00;;;2.97;;
4521;SDS011;2273;48.464;11.926;2023-11-21T09:32:24;5.17;;;2.60;;
4521;SDS011;2273;48.464;11.926;2023-11-21T09:34:49;3.50;;;2.30;;
4521;SDS011;2273;48.464;11.926;2023-11-21T09:37:15;4.30;;;2.40;;
4521;SDS011;2273;48.464;11.926;2023-11-21T09:39:41;4.13;;;2.20;;
4521;SDS011;2273;48.464;11.926;2023-11-21T09:42:10;3.37;;;2.10;;
4521;SDS011;2273;48.464;11.926;2023-11-21T09:47:16;3.87;;;2.40;;
4521;SDS011;2273;48.464;11.926;2023-11-21T09:49:43;3.43;;;2.30;;
4521;SDS011;2273;48.464;11.926;2023-11-21T09:52:14;4.60;;;2.20;;
4521;SDS011;2273;48.464;11.926;2023-11-21T09:54:43;5.17;;;2.40;;
4521;SDS011;2273;48.464;11.926;2023-11-21T09:57:09;3.23;;;2.00;;
4521;SDS011;2273;48.464;11.926;2023-11-21T09:59:34;4.10;;;2.47;;
4521;SDS011;2273;48.464;11.926;2023-11-21T10:02:02;6.23;;;2.10;;
4521;SDS011;2273;48.464;11.926;2023-11-21T10:04:28;3.83;;;2.23;;
4521;SDS011;2273;48.464;11.926;2023-11-21T10:06:54;5.20;;;1.80;;
4521;SDS011;2273;48.464;11.926;2023-11-21T10:09:19;4.40;;;2.27;;
4521;SDS011;2273;48.464;11.926;2023-11-21T10:11:46;2.50;;;1.97;;
4521;SDS011;2273;48.464;11.926;2023-11-21T10:14:12;3.50;;;2.00;;
4521;SDS011;2273;48.464;11.926;2023-11-21T10:16:39;5.60;;;2.53;;
4521;SDS011;2273;48.464;11.926;2023-11-21T10:19:05;3.47;;;2.07;;
4521;SDS011;2273;48.464;11.926;2023-11-21T10:21:34;4.20;;;2.27;;
4521;SDS011;2273;48.464;11.926;2023-11-21T10:23:59;4.53;;;2.43;;
4521;SDS011;2273;48.464;11.926;2023-11-21T10:26:25;5.57;;;2.00;;
4521;SDS011;2273;48.464;11.926;2023-11-21T10:29:02;4.23;;;2.20;;
4521;SDS011;2273;48.464;11.926;2023-11-21T10:31:31;4.87;;;2.40;;
4521;SDS011;2273;48.464;11.926;2023-11-21T10:34:15;3.30;;;2.23;;
4521;SDS011;2273;48.464;11.926;2023-11-21T10:36:42;3.90;;;2.90;;
4521;SDS011;2273;48.464;11.926;2023-11-21T10:39:07;6.23;;;2.70;;
4521;SDS011;2273;48.464;11.926;2023-11-21T10:41:34;11.07;;;5.17;;
4521;SDS011;2273;48.464;11.926;2023-11-21T10:44:00;8.77;;;4.83;;
4521;SDS011;2273;48.464;11.926;2023-11-21T10:46:29;5.40;;;3.10;;
4521;SDS011;2273;48.464;11.926;2023-11-21T10:48:55;5.20;;;2.77;;
4521;SDS011;2273;48.464;11.926;2023-11-21T10:51:21;7.27;;;3.30;;
4521;SDS011;2273;48.464;11.926;2023-11-21T10:53:47;8.80;;;4.60;;
4521;SDS011;2273;48.464;11.926;2023-11-21T10:56:13;7.03;;;4.20;;
4521;SDS011;2273;48.464;11.926;2023-11-21T10:58:45;5.97;;;3.63;;
4521;SDS011;2273;48.464;11.926;2023-11-21T11:01:10;7.17;;;4.20;;
4521;SDS011;2273;48.464;11.926;2023-11-21T11:03:39;8.40;;;4.27;;
4521;SDS011;2273;48.464;11.926;2023-11-21T11:06:05;7.90;;;4.07;;
4521;SDS011;2273;48.464;11.926;2023-11-21T11:08:32;9.67;;;4.40;;
4521;SDS011;2273;48.464;11.926;2023-11-21T11:10:59;9.03;;;3.30;;
4521;SDS011;2273;48.464;11.926;2023-11-21T11:13:24;5.63;;;3.17;;
4521;SDS011;2273;48.464;11.926;2023-11-21T11:15:50;11.40;;;4.10;;
4521;SDS011;2273;48.464;11.926;2023-11-21T11:18:16;5.17;;;3.27;;
4521;SDS011;2273;48.464;11.926;2023-11-21T11:20:42;6.67;;;3.63;;
4521;SDS011;2273;48.464;11.926;2023-11-21T11:28:29;4.63;;;3.57;;
4521;SDS011;2273;48.464;11.926;2023-11-21T11:34:20;5.10;;;4.03;;
4521;SDS011;2273;48.464;11.926;2023-11-21T11:42:06;6.13;;;3.90;;
4521;SDS011;2273;48.464;11.926;2023-11-21T11:55:07;7.93;;;3.80;;
4521;SDS011;2273;48.464;11.926;2023-11-21T11:57:37;5.90;;;3.50;;
4521;SDS011;2273;48.464;11.926;2023-11-21T12:00:07;6.63;;;3.70;;
4521;SDS011;2273;48.464;11.926;2023-11-21T12:02:50;8.97;;;3.50;;
4521;SDS011;2273;48.464;11.926;2023-11-21T12:05:17;4.53;;;3.47;;
4521;SDS011;2273;48.464;11.926;2023-11-21T12:10:14;5.13;;;3.47;;
4521;SDS011;2273;48.464;11.926;2023-11-21T12:12:47;4.37;;;2.80;;
4521;SDS011;2273;48.464;11.926;2023-11-21T12:15:13;7.50;;;3.60;;
4521;SDS011;2273;48.464;11.926;2023-11-21T12:17:39;6.00;;;3.70;;
4521;SDS011;2273;48.464;11.926;2023-11-21T12:20:06;10.03;;;4.77;;
4521;SDS011;2273;48.464;11.926;2023-11-21T12:22:43;12.73;;;3.80;;
4521;SDS011;2273;48.464;11.926;2023-11-21T12:25:09;6.50;;;3.57;;
4521;SDS011;2273;48.464;11.926;2023-11-21T12:27:35;7.20;;;3.93;;
4521;SDS011;2273;48.464;11.926;2023-11-21T12:30:00;6.50;;;4.23;;
4521;SDS011;2273;48.464;11.926;2023-11-21T12:32:25;7.17;;;3.97;;
4521;SDS011;2273;48.464;11.926;2023-11-21T12:34:51;7.93;;;5.43;;
4521;SDS011;2273;48.464;11.926;2023-11-21T12:37:17;5.30;;;4.40;;
4521;SDS011;2273;48.464;11.926;2023-11-21T12:39:43;11.20;;;6.00;;
4521;SDS011;2273;48.464;11.926;2023-11-21T12:42:08;7.83;;;5.03;;
4521;SDS011;2273;48.464;11.926;2023-11-21T12:44:35;8.57;;;5.70;;
4521;SDS011;2273;48.464;11.926;2023-11-21T12:47:01;7.20;;;5.30;;
4521;SDS011;2273;48.464;11.926;2023-11-21T12:49:27;8.97;;;6.07;;
4521;SDS011;2273;48.464;11.926;2023-11-21T12:51:53;8.73;;;5.60;;
4521;SDS011;2273;48.464;11.926;2023-11-21T12:54:19;11.13;;;6.20;;
4521;SDS011;2273;48.464;11.926;2023-11-21T12:56:47;11.90;;;6.00;;
4521;SDS011;2273;48.464;11.926;2023-11-21T12:59:14;8.17;;;5.70;;
4521;SDS011;2273;48.464;11.926;2023-11-21T13:01:44;13.13;;;5.50;;
4521;SDS011;2273;48.464;11.926;2023-11-21T13:04:11;12.93;;;6.13;;
4521;SDS011;2273;48.464;11.926;2023-11-21T13:06:36;6.70;;;4.90;;
4521;SDS011;2273;48.464;11.926;2023-11-21T13:09:06;7.97;;;5.10;;
4521;SDS011;2273;48.464;11.926;2023-11-21T13:11:36;9.00;;;4.80;;
4521;SDS011;2273;48.464;11.926;2023-11-21T13:14:01;9.37;;;5.40;;
4521;SDS011;2273;48.464;11.926;2023-11-21T13:16:28;6.50;;;4.60;;
4521;SDS011;2273;48.464;11.926;2023-11-21T13:18:55;9.97;;;4.83;;
4521;SDS011;2273;48.464;11.926;2023-11-21T13:21:20;7.30;;;4.70;;
4521;SDS011;2273;48.464;11.926;2023-11-21T13:23:47;6.80;;;5.17;;
4521;SDS011;2273;48.464;11.926;2023-11-21T13:26:15;8.33;;;4.23;;
4521;SDS011;2273;48.464;11.926;2023-11-21T13:28:40;7.53;;;4.70;;
4521;SDS011;2273;48.464;11.926;2023-11-21T13:31:10;6.13;;;4.93;;
4521;SDS011;2273;48.464;11.926;2023-11-21T13:33:47;7.43;;;5.00;;
4521;SDS011;2273;48.464;11.926;2023-11-21T13:36:20;9.10;;;4.53;;
4521;SDS011;2273;48.464;11.926;2023-11-21T13:38:49;7.80;;;4.20;;
4521;SDS011;2273;48.464;11.926;2023-11-21T13:41:15;10.00;;;5.80;;
4521;SDS011;2273;48.464;11.926;2023-11-21T13:43:42;10.30;;;5.80;;
4521;SDS011;2273;48.464;11.926;2023-11-21T13:46:13;5.60;;;4.50;;
4521;SDS011;2273;48.464;11.926;2023-11-21T13:48:42;7.10;;;4.83;;
4521;SDS011;2273;48.464;11.926;2023-11-21T13:51:08;5.13;;;4.10;;
4521;SDS011;2273;48.464;11.926;2023-11-21T13:53:41;8.00;;;4.73;;
4521;SDS011;2273;48.464;11.926;2023-11-21T13:56:07;5.57;;;4.63;;
4521;SDS011;2273;48.464;11.926;2023-11-21T13:58:34;5.90;;;4.63;;
4521;SDS011;2273;48.464;11.926;2023-11-21T14:01:24;6.40;;;4.60;;
4521;SDS011;2273;48.464;11.926;2023-11-21T14:04:00;5.53;;;4.30;;
4521;SDS011;2273;48.464;11.926;2023-11-21T14:06:48;8.40;;;4.87;;
4521;SDS011;2273;48.464;11.926;2023-11-21T14:09:17;5.10;;;4.17;;
4521;SDS011;2273;48.464;11.926;2023-11-21T14:11:54;5.90;;;4.30;;
4521;SDS011;2273;48.464;11.926;2023-11-21T14:14:22;8.07;;;5.90;;
4521;SDS011;2273;48.464;11.926;2023-11-21T14:16:50;6.47;;;4.70;;
4521;SDS011;2273;48.464;11.926;2023-11-21T14:19:15;6.97;;;4.40;;
4521;SDS011;2273;48.464;11.926;2023-11-21T14:21:42;5.57;;;4.90;;
4521;SDS011;2273;48.464;11.926;2023-11-21T14:24:13;5.30;;;4.60;;
4521;SDS011;2273;48.464;11.926;2023-11-21T14:26:41;7.57;;;5.83;;
4521;SDS011;2273;48.464;11.926;2023-11-21T14:29:08;8.97;;;6.43;;
4521;SDS011;2273;48.464;11.926;2023-11-21T14:31:34;8.33;;;6.07;;
4521;SDS011;2273;48.464;11.926;2023-11-21T14:34:00;8.17;;;5.20;;
4521;SDS011;2273;48.464;11.926;2023-11-21T14:36:31;6.87;;;5.10;;
4521;SDS011;2273;48.464;11.926;2023-11-21T14:38:56;7.57;;;5.07;;
4521;SDS011;2273;48.464;11.926;2023-11-21T14:41:22;5.90;;;4.97;;
4521;SDS011;2273;48.464;11.926;2023-11-21T14:43:50;7.90;;;4.90;;
4521;SDS011;2273;48.464;11.926;2023-11-21T14:46:16;7.57;;;5.93;;
4521;SDS011;2273;48.464;11.926;2023-11-21T14:48:44;7.50;;;5.70;;
4521;SDS011;2273;48.464;11.926;2023-11-21T14:51:27;5.80;;;4.10;;
4521;SDS011;2273;48.464;11.926;2023-11-21T14:53:57;8.37;;;4.80;;
4521;SDS011;2273;48.464;11.926;2023-11-21T14:56:31;8.57;;;5.07;;
4521;SDS011;2273;48.464;11.926;2023-11-21T14:58:58;6.70;;;5.43;;
4521;SDS011;2273;48.464;11.926;2023-11-21T15:01:32;11.37;;;6.90;;
4521;SDS011;2273;48.464;11.926;2023-11-21T15:04:21;11.50;;;6.20;;
4521;SDS011;2273;48.464;11.926;2023-11-21T15:07:01;12.27;;;7.90;;
4521;SDS011;2273;48.464;11.926;2023-11-21T15:09:29;16.90;;;10.20;;
4521;SDS011;2273;48.464;11.926;2023-11-21T15:11:57;13.50;;;9.50;;
4521;SDS011;2273;48.464;11.926;2023-11-21T15:14:49;21.27;;;12.90;;
4521;SDS011;2273;48.464;11.926;2023-11-21T15:17:20;13.10;;;8.47;;
4521;SDS011;2273;48.464;11.926;2023-11-21T15:19:52;12.70;;;8.30;;
4521;SDS011;2273;48.464;11.926;2023-11-21T15:22:18;13.10;;;7.43;;
4521;SDS011;2273;48.464;11.926;2023-11-21T15:24:44;10.60;;;7.30;;
4521;SDS011;2273;48.464;11.926;2023-11-21T15:27:15;17.20;;;9.63;;